sensor_id;sensor_type;location;lat;lon;timestamp;P1;durP1;ratioP1;P2;durP2;ratioP2
68225;SDS011;55045;49.410;11.030;2024-03-02T00:01:41;84.43;;;41.53;;
68225;SDS011;55045;49.410;11.030;2024-03-02T00:04:46;78.53;;;42.20;;
68225;SDS011;55045;49.410;11.030;2024-03-02T00:07:53;80.05;;;42.67;;
68225;SDS011;55045;49.410;11.030;2024-03-02T00:11:00;80.88;;;44.08;;
68225;SDS011;55045;49.410;11.030;2024-03-02T00:14:04;86.32;;;43.83;;
68225;SDS011;55045;49.410;11.030;2024-03-02T00:17:09;86.60;;;45.50;;
68225;SDS011;55045;49.410;11.030;2024-03-02T00:20:25;83.35;;;43.78;;
68225;SDS011;55045;49.410;11.030;2024-03-02T00:23:32;85.50;;;44.50;;
68225;SDS011;55045;49.410;11.030;2024-03-02T00:26:38;77.85;;;41.53;;
68225;SDS011;55045;49.410;11.030;2024-03-02T00:29:42;78.07;;;41.80;;
68225;SDS011;55045;49.410;11.030;2024-03-02T00:32:46;64.28;;;35.28;;
68225;SDS011;55045;49.410;11.030;2024-03-02T00:35:50;81.80;;;42.05;;
68225;SDS011;55045;49.410;11.030;2024-03-02T00:38:56;86.82;;;44.95;;
68225;SDS011;55045;49.410;11.030;2024-03-02T00:42:00;82.88;;;44.30;;
68225;SDS011;55045;49.410;11.030;2024-03-02T00:45:05;97.45;;;44.42;;
68225;SDS011;55045;49.410;11.030;2024-03-02T00:48:12;85.30;;;42.20;;
68225;SDS011;55045;49.410;11.030;2024-03-02T00:51:18;95.78;;;46.40;;
68225;SDS011;55045;49.410;11.030;2024-03-02T00:54:25;82.35;;;40.85;;
68225;SDS011;55045;49.410;11.030;2024-03-02T00:57:31;94.57;;;45.58;;
68225;SDS011;55045;49.410;11.030;2024-03-02T01:00:37;100.22;;;47.63;;
68225;SDS011;55045;49.410;11.030;2024-03-02T01:03:41;97.13;;;47.65;;
68225;SDS011;55045;49.410;11.030;2024-03-02T01:06:45;107.22;;;48.83;;
68225;SDS011;55045;49.410;11.030;2024-03-02T01:09:51;107.82;;;48.78;;
68225;SDS011;55045;49.410;11.030;2024-03-02T01:12:55;116.90;;;51.88;;
68225;SDS011;55045;49.410;11.030;2024-03-02T01:15:59;97.78;;;48.20;;
68225;SDS011;55045;49.410;11.030;2024-03-02T01:19:04;98.45;;;47.33;;
68225;SDS011;55045;49.410;11.030;2024-03-02T01:22:09;102.57;;;48.30;;
68225;SDS011;55045;49.410;11.030;2024-03-02T01:25:14;110.28;;;49.95;;
68225;SDS011;55045;49.410;11.030;2024-03-02T01:28:19;94.05;;;46.67;;
68225;SDS011;55045;49.410;11.030;2024-03-02T01:31:24;105.07;;;47.70;;
68225;SDS011;55045;49.410;11.030;2024-03-02T01:34:28;95.47;;;45.75;;
68225;SDS011;55045;49.410;11.030;2024-03-02T01:37:31;97.80;;;46.97;;
68225;SDS011;55045;49.410;11.030;2024-03-02T01:40:36;93.72;;;45.08;;
68225;SDS011;55045;49.410;11.030;2024-03-02T01:43:41;96.22;;;45.85;;
68225;SDS011;55045;49.410;11.030;2024-03-02T01:46:45;89.88;;;43.80;;
68225;SDS011;55045;49.410;11.030;2024-03-02T01:49:50;108.38;;;48.33;;
68225;SDS011;55045;49.410;11.030;2024-03-02T01:52:55;99.03;;;46.22;;
68225;SDS011;55045;49.410;11.030;2024-03-02T01:56:01;79.57;;;40.45;;
68225;SDS011;55045;49.410;11.030;2024-03-02T01:59:05;98.85;;;48.42;;
68225;SDS011;55045;49.410;11.030;2024-03-02T02:02:10;90.95;;;43.97;;
68225;SDS011;55045;49.410;11.030;2024-03-02T02:05:14;93.78;;;45.17;;
68225;SDS011;55045;49.410;11.030;2024-03-02T02:08:18;106.32;;;49.85;;
68225;SDS011;55045;49.410;11.030;2024-03-02T02:11:23;96.47;;;47.97;;
68225;SDS011;55045;49.410;11.030;2024-03-02T02:14:27;89.57;;;43.95;;
68225;SDS011;55045;49.410;11.030;2024-03-02T02:17:31;94.32;;;47.60;;
68225;SDS011;55045;49.410;11.030;2024-03-02T02:20:36;81.25;;;41.80;;
68225;SDS011;55045;49.410;11.030;2024-03-02T02:23:41;108.38;;;50.38;;
68225;SDS011;55045;49.410;11.030;2024-03-02T02:26:48;107.65;;;48.72;;
68225;SDS011;55045;49.410;11.030;2024-03-02T02:29:52;88.38;;;42.97;;
68225;SDS011;55045;49.410;11.030;2024-03-02T02:32:57;84.07;;;42.75;;
68225;SDS011;55045;49.410;11.030;2024-03-02T02:36:02;71.45;;;37.70;;
68225;SDS011;55045;49.410;11.030;2024-03-02T02:39:09;80.57;;;40.47;;
68225;SDS011;55045;49.410;11.030;2024-03-02T02:42:15;94.43;;;45.22;;
68225;SDS011;55045;49.410;11.030;2024-03-02T02:45:19;110.20;;;48.75;;
68225;SDS011;55045;49.410;11.030;2024-03-02T02:48:23;82.88;;;44.33;;
68225;SDS011;55045;49.410;11.030;2024-03-02T02:51:27;109.35;;;50.45;;
68225;SDS011;55045;49.410;11.030;2024-03-02T02:54:32;100.32;;;49.30;;
68225;SDS011;55045;49.410;11.030;2024-03-02T02:57:36;110.40;;;50.95;;
68225;SDS011;55045;49.410;11.030;2024-03-02T03:00:41;85.65;;;42.03;;
68225;SDS011;55045;49.410;11.030;2024-03-02T03:03:46;94.55;;;45.28;;
68225;SDS011;55045;49.410;11.030;2024-03-02T03:06:51;89.50;;;45.30;;
68225;SDS011;55045;49.410;11.030;2024-03-02T03:09:57;87.55;;;44.50;;
68225;SDS011;55045;49.410;11.030;2024-03-02T03:13:01;95.90;;;47.05;;
68225;SDS011;55045;49.410;11.030;2024-03-02T03:16:05;77.18;;;41.35;;
68225;SDS011;55045;49.410;11.030;2024-03-02T03:19:09;85.05;;;41.70;;
68225;SDS011;55045;49.410;11.030;2024-03-02T03:22:13;91.88;;;45.40;;
68225;SDS011;55045;49.410;11.030;2024-03-02T03:25:18;91.15;;;45.05;;
68225;SDS011;55045;49.410;11.030;2024-03-02T03:28:22;95.75;;;45.15;;
68225;SDS011;55045;49.410;11.030;2024-03-02T03:31:26;89.78;;;44.45;;
68225;SDS011;55045;49.410;11.030;2024-03-02T03:34:32;85.93;;;43.45;;
68225;SDS011;55045;49.410;11.030;2024-03-02T03:37:36;85.03;;;42.70;;
68225;SDS011;55045;49.410;11.030;2024-03-02T03:40:42;79.22;;;39.85;;
68225;SDS011;55045;49.410;11.030;2024-03-02T03:43:46;82.65;;;41.03;;
68225;SDS011;55045;49.410;11.030;2024-03-02T03:46:50;84.93;;;42.40;;
68225;SDS011;55045;49.410;11.030;2024-03-02T03:49:54;78.88;;;40.30;;
68225;SDS011;55045;49.410;11.030;2024-03-02T03:52:58;77.35;;;40.90;;
68225;SDS011;55045;49.410;11.030;2024-03-02T03:56:04;58.17;;;32.38;;
68225;SDS011;55045;49.410;11.030;2024-03-02T03:59:08;72.22;;;37.88;;
68225;SDS011;55045;49.410;11.030;2024-03-02T04:02:12;90.68;;;42.55;;
68225;SDS011;55045;49.410;11.030;2024-03-02T04:05:16;78.63;;;39.53;;
68225;SDS011;55045;49.410;11.030;2024-03-02T04:08:19;78.60;;;39.40;;
68225;SDS011;55045;49.410;11.030;2024-03-02T04:11:24;69.15;;;35.95;;
68225;SDS011;55045;49.410;11.030;2024-03-02T04:14:28;66.68;;;36.40;;
68225;SDS011;55045;49.410;11.030;2024-03-02T04:17:32;71.25;;;38.13;;
68225;SDS011;55045;49.410;11.030;2024-03-02T04:20:38;65.53;;;36.92;;
68225;SDS011;55045;49.410;11.030;2024-03-02T04:23:41;74.90;;;38.38;;
68225;SDS011;55045;49.410;11.030;2024-03-02T04:26:46;65.63;;;36.60;;
68225;SDS011;55045;49.410;11.030;2024-03-02T04:29:50;58.88;;;33.67;;
68225;SDS011;55045;49.410;11.030;2024-03-02T04:34:29;65.50;;;34.50;;
68225;SDS011;55045;49.410;11.030;2024-03-02T04:37:34;62.95;;;32.20;;
68225;SDS011;55045;49.410;11.030;2024-03-02T04:40:38;61.10;;;32.22;;
68225;SDS011;55045;49.410;11.030;2024-03-02T04:43:41;62.47;;;33.42;;
68225;SDS011;55045;49.410;11.030;2024-03-02T04:46:45;61.88;;;30.95;;
68225;SDS011;55045;49.410;11.030;2024-03-02T04:49:50;61.78;;;32.38;;
68225;SDS011;55045;49.410;11.030;2024-03-02T04:52:54;58.10;;;31.40;;
68225;SDS011;55045;49.410;11.030;2024-03-02T04:55:59;58.10;;;31.95;;
68225;SDS011;55045;49.410;11.030;2024-03-02T04:59:29;54.22;;;31.85;;
68225;SDS011;55045;49.410;11.030;2024-03-02T05:02:34;66.05;;;33.10;;
68225;SDS011;55045;49.410;11.030;2024-03-02T05:05:39;62.90;;;32.05;;
68225;SDS011;55045;49.410;11.030;2024-03-02T05:08:44;63.35;;;32.35;;
68225;SDS011;55045;49.410;11.030;2024-03-02T05:11:49;51.60;;;28.60;;
68225;SDS011;55045;49.410;11.030;2024-03-02T05:15:07;61.53;;;31.67;;
68225;SDS011;55045;49.410;11.030;2024-03-02T05:18:13;55.95;;;30.92;;
68225;SDS011;55045;49.410;11.030;2024-03-02T05:21:18;63.28;;;33.28;;
68225;SDS011;55045;49.410;11.030;2024-03-02T05:24:22;69.50;;;34.33;;
68225;SDS011;55045;49.410;11.030;2024-03-02T05:27:27;67.10;;;33.38;;
68225;SDS011;55045;49.410;11.030;2024-03-02T05:30:30;56.25;;;29.55;;
68225;SDS011;55045;49.410;11.030;2024-03-02T05:33:36;64.70;;;31.08;;
68225;SDS011;55045;49.410;11.030;2024-03-02T05:36:43;66.03;;;32.90;;
68225;SDS011;55045;49.410;11.030;2024-03-02T05:39:47;67.43;;;33.47;;
68225;SDS011;55045;49.410;11.030;2024-03-02T05:42:52;65.65;;;33.22;;
68225;SDS011;55045;49.410;11.030;2024-03-02T05:45:56;72.13;;;33.85;;
68225;SDS011;55045;49.410;11.030;2024-03-02T05:49:00;68.78;;;34.35;;
68225;SDS011;55045;49.410;11.030;2024-03-02T05:52:05;71.05;;;33.28;;
68225;SDS011;55045;49.410;11.030;2024-03-02T05:55:10;73.15;;;35.45;;
68225;SDS011;55045;49.410;11.030;2024-03-02T05:58:14;64.20;;;30.25;;
68225;SDS011;55045;49.410;11.030;2024-03-02T06:01:30;67.80;;;32.60;;
68225;SDS011;55045;49.410;11.030;2024-03-02T06:04:34;75.70;;;34.15;;
68225;SDS011;55045;49.410;11.030;2024-03-02T06:07:39;70.53;;;35.83;;
68225;SDS011;55045;49.410;11.030;2024-03-02T06:10:44;72.72;;;33.50;;
68225;SDS011;55045;49.410;11.030;2024-03-02T06:13:48;68.32;;;33.35;;
68225;SDS011;55045;49.410;11.030;2024-03-02T06:16:53;66.10;;;31.73;;
68225;SDS011;55045;49.410;11.030;2024-03-02T06:19:56;57.13;;;29.80;;
68225;SDS011;55045;49.410;11.030;2024-03-02T06:23:02;72.25;;;34.40;;
68225;SDS011;55045;49.410;11.030;2024-03-02T06:26:06;59.28;;;31.73;;
68225;SDS011;55045;49.410;11.030;2024-03-02T06:29:11;62.25;;;31.88;;
68225;SDS011;55045;49.410;11.030;2024-03-02T06:32:15;60.13;;;29.25;;
68225;SDS011;55045;49.410;11.030;2024-03-02T06:35:19;74.38;;;34.22;;
68225;SDS011;55045;49.410;11.030;2024-03-02T06:38:24;78.43;;;36.28;;
68225;SDS011;55045;49.410;11.030;2024-03-02T06:41:27;66.57;;;32.53;;
68225;SDS011;55045;49.410;11.030;2024-03-02T06:44:32;58.70;;;31.45;;
68225;SDS011;55045;49.410;11.030;2024-03-02T06:47:35;52.55;;;28.73;;
68225;SDS011;55045;49.410;11.030;2024-03-02T06:50:40;53.15;;;28.15;;
68225;SDS011;55045;49.410;11.030;2024-03-02T06:53:45;52.60;;;28.30;;
68225;SDS011;55045;49.410;11.030;2024-03-02T06:56:49;71.05;;;34.72;;
68225;SDS011;55045;49.410;11.030;2024-03-02T06:59:53;68.70;;;33.40;;
68225;SDS011;55045;49.410;11.030;2024-03-02T07:03:00;63.58;;;31.10;;
68225;SDS011;55045;49.410;11.030;2024-03-02T07:06:04;63.03;;;32.33;;
68225;SDS011;55045;49.410;11.030;2024-03-02T07:09:09;58.50;;;29.00;;
68225;SDS011;55045;49.410;11.030;2024-03-02T07:12:13;62.22;;;32.03;;
68225;SDS011;55045;49.410;11.030;2024-03-02T07:15:18;61.63;;;33.10;;
68225;SDS011;55045;49.410;11.030;2024-03-02T07:18:40;54.95;;;29.73;;
68225;SDS011;55045;49.410;11.030;2024-03-02T07:21:46;56.53;;;31.23;;
68225;SDS011;55045;49.410;11.030;2024-03-02T07:24:51;54.75;;;28.48;;
68225;SDS011;55045;49.410;11.030;2024-03-02T07:27:55;55.90;;;30.13;;
68225;SDS011;55045;49.410;11.030;2024-03-02T07:30:59;52.75;;;29.67;;
68225;SDS011;55045;49.410;11.030;2024-03-02T07:34:03;44.35;;;27.10;;
68225;SDS011;55045;49.410;11.030;2024-03-02T07:37:07;51.55;;;28.40;;
68225;SDS011;55045;49.410;11.030;2024-03-02T07:40:13;49.50;;;29.23;;
68225;SDS011;55045;49.410;11.030;2024-03-02T07:43:17;46.05;;;27.60;;
68225;SDS011;55045;49.410;11.030;2024-03-02T07:46:22;40.05;;;24.75;;
68225;SDS011;55045;49.410;11.030;2024-03-02T07:49:26;39.85;;;24.55;;
68225;SDS011;55045;49.410;11.030;2024-03-02T07:52:31;37.63;;;24.00;;
68225;SDS011;55045;49.410;11.030;2024-03-02T07:55:37;40.85;;;25.40;;
68225;SDS011;55045;49.410;11.030;2024-03-02T07:58:40;41.80;;;25.90;;
68225;SDS011;55045;49.410;11.030;2024-03-02T08:01:45;37.95;;;23.58;;
68225;SDS011;55045;49.410;11.030;2024-03-02T08:04:49;41.00;;;26.10;;
68225;SDS011;55045;49.410;11.030;2024-03-02T08:07:54;41.55;;;25.77;;
68225;SDS011;55045;49.410;11.030;2024-03-02T08:11:00;40.72;;;26.15;;
68225;SDS011;55045;49.410;11.030;2024-03-02T08:14:05;41.67;;;26.42;;
68225;SDS011;55045;49.410;11.030;2024-03-02T08:17:09;36.65;;;22.90;;
68225;SDS011;55045;49.410;11.030;2024-03-02T08:20:13;40.22;;;25.88;;
68225;SDS011;55045;49.410;11.030;2024-03-02T08:23:18;40.42;;;25.58;;
68225;SDS011;55045;49.410;11.030;2024-03-02T08:26:24;35.70;;;22.23;;
68225;SDS011;55045;49.410;11.030;2024-03-02T08:29:31;37.83;;;25.27;;
68225;SDS011;55045;49.410;11.030;2024-03-02T08:32:35;40.50;;;24.95;;
68225;SDS011;55045;49.410;11.030;2024-03-02T08:35:39;41.20;;;25.30;;
68225;SDS011;55045;49.410;11.030;2024-03-02T08:38:44;38.92;;;25.30;;
68225;SDS011;55045;49.410;11.030;2024-03-02T08:41:49;35.10;;;22.85;;
68225;SDS011;55045;49.410;11.030;2024-03-02T08:44:52;35.92;;;23.20;;
68225;SDS011;55045;49.410;11.030;2024-03-02T08:47:57;29.05;;;21.67;;
68225;SDS011;55045;49.410;11.030;2024-03-02T08:51:01;28.50;;;21.17;;
68225;SDS011;55045;49.410;11.030;2024-03-02T08:54:09;31.63;;;22.17;;
68225;SDS011;55045;49.410;11.030;2024-03-02T08:57:15;28.45;;;21.65;;
68225;SDS011;55045;49.410;11.030;2024-03-02T09:00:19;32.05;;;22.27;;
68225;SDS011;55045;49.410;11.030;2024-03-02T09:03:24;27.55;;;21.73;;
68225;SDS011;55045;49.410;11.030;2024-03-02T09:06:28;25.65;;;20.20;;
68225;SDS011;55045;49.410;11.030;2024-03-02T09:09:32;30.83;;;23.00;;
68225;SDS011;55045;49.410;11.030;2024-03-02T09:12:38;27.15;;;21.27;;
68225;SDS011;55045;49.410;11.030;2024-03-02T09:15:42;23.70;;;19.02;;
68225;SDS011;55045;49.410;11.030;2024-03-02T09:18:47;27.50;;;20.98;;
68225;SDS011;55045;49.410;11.030;2024-03-02T09:21:51;21.98;;;18.92;;
68225;SDS011;55045;49.410;11.030;2024-03-02T09:24:54;26.20;;;20.40;;
68225;SDS011;55045;49.410;11.030;2024-03-02T09:28:00;22.88;;;19.80;;
68225;SDS011;55045;49.410;11.030;2024-03-02T09:31:05;25.25;;;20.88;;
68225;SDS011;55045;49.410;11.030;2024-03-02T09:34:10;20.33;;;17.90;;
68225;SDS011;55045;49.410;11.030;2024-03-02T09:37:15;22.13;;;19.83;;
68225;SDS011;55045;49.410;11.030;2024-03-02T09:40:21;22.35;;;19.95;;
68225;SDS011;55045;49.410;11.030;2024-03-02T09:43:26;20.77;;;18.58;;
68225;SDS011;55045;49.410;11.030;2024-03-02T09:46:31;20.67;;;17.48;;
68225;SDS011;55045;49.410;11.030;2024-03-02T09:49:35;19.63;;;17.40;;
68225;SDS011;55045;49.410;11.030;2024-03-02T09:52:42;18.88;;;17.05;;
68225;SDS011;55045;49.410;11.030;2024-03-02T09:55:46;17.90;;;16.23;;
68225;SDS011;55045;49.410;11.030;2024-03-02T09:58:51;19.48;;;17.52;;
68225;SDS011;55045;49.410;11.030;2024-03-02T10:01:56;18.10;;;16.40;;
68225;SDS011;55045;49.410;11.030;2024-03-02T10:05:01;19.23;;;17.30;;
68225;SDS011;55045;49.410;11.030;2024-03-02T10:08:07;19.05;;;17.15;;
68225;SDS011;55045;49.410;11.030;2024-03-02T10:11:11;16.77;;;15.07;;
68225;SDS011;55045;49.410;11.030;2024-03-02T10:14:30;17.58;;;15.88;;
68225;SDS011;55045;49.410;11.030;2024-03-02T10:17:35;17.10;;;15.40;;
68225;SDS011;55045;49.410;11.030;2024-03-02T10:20:40;17.23;;;14.70;;
68225;SDS011;55045;49.410;11.030;2024-03-02T10:23:45;18.67;;;16.67;;
68225;SDS011;55045;49.410;11.030;2024-03-02T10:26:48;17.17;;;14.23;;
68225;SDS011;55045;49.410;11.030;2024-03-02T10:29:54;16.45;;;14.02;;
68225;SDS011;55045;49.410;11.030;2024-03-02T10:34:29;14.70;;;13.20;;
68225;SDS011;55045;49.410;11.030;2024-03-02T10:37:34;14.73;;;13.10;;
68225;SDS011;55045;49.410;11.030;2024-03-02T10:40:38;17.80;;;16.00;;
68225;SDS011;55045;49.410;11.030;2024-03-02T10:43:43;15.70;;;13.77;;
68225;SDS011;55045;49.410;11.030;2024-03-02T10:46:47;13.95;;;12.35;;
68225;SDS011;55045;49.410;11.030;2024-03-02T10:49:54;14.27;;;12.15;;
68225;SDS011;55045;49.410;11.030;2024-03-02T10:53:02;12.63;;;10.98;;
68225;SDS011;55045;49.410;11.030;2024-03-02T10:56:09;13.63;;;11.95;;
68225;SDS011;55045;49.410;11.030;2024-03-02T10:59:16;15.85;;;13.45;;
68225;SDS011;55045;49.410;11.030;2024-03-02T11:02:25;17.73;;;14.95;;
68225;SDS011;55045;49.410;11.030;2024-03-02T11:05:33;16.45;;;14.68;;
68225;SDS011;55045;49.410;11.030;2024-03-02T11:08:41;19.13;;;16.75;;
68225;SDS011;55045;49.410;11.030;2024-03-02T11:11:49;20.08;;;17.38;;
68225;SDS011;55045;49.410;11.030;2024-03-02T11:14:59;21.98;;;18.65;;
68225;SDS011;55045;49.410;11.030;2024-03-02T11:18:05;20.00;;;16.65;;
68225;SDS011;55045;49.410;11.030;2024-03-02T11:21:13;19.15;;;16.13;;
68225;SDS011;55045;49.410;11.030;2024-03-02T11:24:32;19.45;;;16.52;;
68225;SDS011;55045;49.410;11.030;2024-03-02T11:27:59;21.95;;;19.25;;
68225;SDS011;55045;49.410;11.030;2024-03-02T11:31:05;19.42;;;16.17;;
68225;SDS011;55045;49.410;11.030;2024-03-02T11:34:23;20.38;;;17.35;;
68225;SDS011;55045;49.410;11.030;2024-03-02T11:37:34;21.38;;;16.17;;
68225;SDS011;55045;49.410;11.030;2024-03-02T11:40:38;18.08;;;15.60;;
68225;SDS011;55045;49.410;11.030;2024-03-02T11:43:43;19.30;;;16.40;;
68225;SDS011;55045;49.410;11.030;2024-03-02T11:46:51;19.13;;;15.82;;
68225;SDS011;55045;49.410;11.030;2024-03-02T11:49:56;20.42;;;16.67;;
68225;SDS011;55045;49.410;11.030;2024-03-02T11:53:04;19.33;;;15.57;;
68225;SDS011;55045;49.410;11.030;2024-03-02T11:59:15;21.92;;;16.38;;
68225;SDS011;55045;49.410;11.030;2024-03-02T12:02:19;19.02;;;16.20;;
68225;SDS011;55045;49.410;11.030;2024-03-02T12:05:24;24.50;;;18.02;;
68225;SDS011;55045;49.410;11.030;2024-03-02T12:08:30;23.52;;;17.58;;
68225;SDS011;55045;49.410;11.030;2024-03-02T12:11:35;24.48;;;17.98;;
68225;SDS011;55045;49.410;11.030;2024-03-02T12:14:40;27.05;;;18.98;;
68225;SDS011;55045;49.410;11.030;2024-03-02T12:17:44;25.70;;;17.35;;
68225;SDS011;55045;49.410;11.030;2024-03-02T12:20:49;26.65;;;19.27;;
68225;SDS011;55045;49.410;11.030;2024-03-02T12:24:17;26.73;;;19.60;;
68225;SDS011;55045;49.410;11.030;2024-03-02T12:27:21;30.13;;;20.63;;
68225;SDS011;55045;49.410;11.030;2024-03-02T12:30:26;26.63;;;20.20;;
68225;SDS011;55045;49.410;11.030;2024-03-02T12:33:35;30.88;;;21.65;;
68225;SDS011;55045;49.410;11.030;2024-03-02T12:36:42;30.80;;;21.35;;
68225;SDS011;55045;49.410;11.030;2024-03-02T12:39:47;28.95;;;20.80;;
68225;SDS011;55045;49.410;11.030;2024-03-02T12:43:00;29.58;;;21.15;;
68225;SDS011;55045;49.410;11.030;2024-03-02T12:46:35;28.85;;;20.70;;
68225;SDS011;55045;49.410;11.030;2024-03-02T12:49:40;29.08;;;20.83;;
68225;SDS011;55045;49.410;11.030;2024-03-02T12:52:50;30.48;;;19.80;;
68225;SDS011;55045;49.410;11.030;2024-03-02T12:55:56;29.13;;;19.60;;
68225;SDS011;55045;49.410;11.030;2024-03-02T12:59:01;30.33;;;20.45;;
68225;SDS011;55045;49.410;11.030;2024-03-02T13:02:06;27.48;;;19.77;;
68225;SDS011;55045;49.410;11.030;2024-03-02T13:05:10;26.70;;;19.67;;
68225;SDS011;55045;49.410;11.030;2024-03-02T13:08:14;28.88;;;21.05;;
68225;SDS011;55045;49.410;11.030;2024-03-02T13:11:20;27.27;;;19.65;;
68225;SDS011;55045;49.410;11.030;2024-03-02T13:14:27;27.35;;;20.55;;
68225;SDS011;55045;49.410;11.030;2024-03-02T13:17:34;25.02;;;18.02;;
68225;SDS011;55045;49.410;11.030;2024-03-02T13:20:40;22.58;;;17.13;;
68225;SDS011;55045;49.410;11.030;2024-03-02T13:23:44;22.25;;;15.82;;
68225;SDS011;55045;49.410;11.030;2024-03-02T13:26:49;22.85;;;16.17;;
68225;SDS011;55045;49.410;11.030;2024-03-02T13:29:58;21.05;;;15.07;;
68225;SDS011;55045;49.410;11.030;2024-03-02T13:33:02;22.92;;;15.02;;
68225;SDS011;55045;49.410;11.030;2024-03-02T13:36:07;24.25;;;17.95;;
68225;SDS011;55045;49.410;11.030;2024-03-02T13:39:13;27.42;;;18.73;;
68225;SDS011;55045;49.410;11.030;2024-03-02T13:42:19;27.90;;;18.42;;
68225;SDS011;55045;49.410;11.030;2024-03-02T13:45:24;24.30;;;16.83;;
68225;SDS011;55045;49.410;11.030;2024-03-02T13:48:28;18.85;;;14.15;;
68225;SDS011;55045;49.410;11.030;2024-03-02T13:51:33;20.55;;;14.32;;
68225;SDS011;55045;49.410;11.030;2024-03-02T13:54:37;17.90;;;12.68;;
68225;SDS011;55045;49.410;11.030;2024-03-02T13:57:44;20.58;;;13.90;;
68225;SDS011;55045;49.410;11.030;2024-03-02T14:00:50;19.67;;;13.63;;
68225;SDS011;55045;49.410;11.030;2024-03-02T14:03:55;19.38;;;13.45;;
68225;SDS011;55045;49.410;11.030;2024-03-02T14:06:59;19.92;;;13.95;;
68225;SDS011;55045;49.410;11.030;2024-03-02T14:10:03;19.65;;;14.05;;
68225;SDS011;55045;49.410;11.030;2024-03-02T14:13:09;19.58;;;13.30;;
68225;SDS011;55045;49.410;11.030;2024-03-02T14:16:14;22.77;;;15.27;;
68225;SDS011;55045;49.410;11.030;2024-03-02T14:19:18;21.42;;;14.02;;
68225;SDS011;55045;49.410;11.030;2024-03-02T14:22:22;21.65;;;13.88;;
68225;SDS011;55045;49.410;11.030;2024-03-02T14:25:26;19.27;;;13.55;;
68225;SDS011;55045;49.410;11.030;2024-03-02T14:28:34;20.08;;;13.82;;
68225;SDS011;55045;49.410;11.030;2024-03-02T14:31:52;20.73;;;14.07;;
68225;SDS011;55045;49.410;11.030;2024-03-02T14:34:56;20.60;;;13.70;;
68225;SDS011;55045;49.410;11.030;2024-03-02T14:37:59;19.35;;;12.90;;
68225;SDS011;55045;49.410;11.030;2024-03-02T14:41:03;17.55;;;12.77;;
68225;SDS011;55045;49.410;11.030;2024-03-02T14:44:09;19.17;;;13.18;;
68225;SDS011;55045;49.410;11.030;2024-03-02T14:47:13;18.73;;;15.05;;
68225;SDS011;55045;49.410;11.030;2024-03-02T14:50:17;20.05;;;15.15;;
68225;SDS011;55045;49.410;11.030;2024-03-02T14:53:21;22.08;;;15.77;;
68225;SDS011;55045;49.410;11.030;2024-03-02T14:56:25;19.02;;;14.10;;
68225;SDS011;55045;49.410;11.030;2024-03-02T14:59:30;21.23;;;15.82;;
68225;SDS011;55045;49.410;11.030;2024-03-02T15:02:34;19.33;;;15.30;;
68225;SDS011;55045;49.410;11.030;2024-03-02T15:05:37;21.17;;;14.57;;
68225;SDS011;55045;49.410;11.030;2024-03-02T15:08:42;20.25;;;15.63;;
68225;SDS011;55045;49.410;11.030;2024-03-02T15:11:57;20.65;;;15.55;;
68225;SDS011;55045;49.410;11.030;2024-03-02T15:15:14;19.08;;;13.55;;
68225;SDS011;55045;49.410;11.030;2024-03-02T15:18:37;21.52;;;16.48;;
68225;SDS011;55045;49.410;11.030;2024-03-02T15:21:42;21.90;;;15.95;;
68225;SDS011;55045;49.410;11.030;2024-03-02T15:24:46;25.40;;;17.20;;
68225;SDS011;55045;49.410;11.030;2024-03-02T15:27:51;17.95;;;13.23;;
68225;SDS011;55045;49.410;11.030;2024-03-02T15:30:57;18.67;;;13.30;;
68225;SDS011;55045;49.410;11.030;2024-03-02T15:34:01;19.88;;;13.35;;
68225;SDS011;55045;49.410;11.030;2024-03-02T15:37:05;18.45;;;12.65;;
68225;SDS011;55045;49.410;11.030;2024-03-02T15:40:09;17.00;;;12.27;;
68225;SDS011;55045;49.410;11.030;2024-03-02T15:43:13;18.67;;;11.90;;
68225;SDS011;55045;49.410;11.030;2024-03-02T15:46:18;22.42;;;13.07;;
68225;SDS011;55045;49.410;11.030;2024-03-02T15:49:23;19.88;;;12.43;;
68225;SDS011;55045;49.410;11.030;2024-03-02T15:52:28;21.85;;;14.13;;
68225;SDS011;55045;49.410;11.030;2024-03-02T15:55:32;22.48;;;14.68;;
68225;SDS011;55045;49.410;11.030;2024-03-02T15:58:36;19.90;;;14.38;;
68225;SDS011;55045;49.410;11.030;2024-03-02T16:01:42;21.40;;;14.30;;
68225;SDS011;55045;49.410;11.030;2024-03-02T16:04:46;23.02;;;15.63;;
68225;SDS011;55045;49.410;11.030;2024-03-02T16:07:50;23.73;;;15.55;;
68225;SDS011;55045;49.410;11.030;2024-03-02T16:10:54;21.15;;;16.35;;
68225;SDS011;55045;49.410;11.030;2024-03-02T16:14:00;25.75;;;17.90;;
68225;SDS011;55045;49.410;11.030;2024-03-02T16:17:05;23.80;;;16.75;;
68225;SDS011;55045;49.410;11.030;2024-03-02T16:23:15;23.70;;;17.60;;
68225;SDS011;55045;49.410;11.030;2024-03-02T16:26:19;26.60;;;18.92;;
68225;SDS011;55045;49.410;11.030;2024-03-02T16:29:23;22.95;;;17.48;;
68225;SDS011;55045;49.410;11.030;2024-03-02T16:34:29;25.38;;;18.63;;
68225;SDS011;55045;49.410;11.030;2024-03-02T16:37:34;23.83;;;18.45;;
68225;SDS011;55045;49.410;11.030;2024-03-02T16:40:38;27.38;;;19.77;;
68225;SDS011;55045;49.410;11.030;2024-03-02T16:43:42;24.25;;;19.05;;
68225;SDS011;55045;49.410;11.030;2024-03-02T16:46:47;26.20;;;19.63;;
68225;SDS011;55045;49.410;11.030;2024-03-02T16:49:53;25.88;;;20.88;;
68225;SDS011;55045;49.410;11.030;2024-03-02T16:53:01;22.30;;;18.67;;
68225;SDS011;55045;49.410;11.030;2024-03-02T16:56:05;26.90;;;20.65;;
68225;SDS011;55045;49.410;11.030;2024-03-02T16:59:10;27.55;;;22.17;;
68225;SDS011;55045;49.410;11.030;2024-03-02T17:02:14;27.67;;;21.38;;
68225;SDS011;55045;49.410;11.030;2024-03-02T17:05:21;29.92;;;21.48;;
68225;SDS011;55045;49.410;11.030;2024-03-02T17:08:25;24.40;;;19.60;;
68225;SDS011;55045;49.410;11.030;2024-03-02T17:11:28;28.42;;;21.25;;
68225;SDS011;55045;49.410;11.030;2024-03-02T17:14:33;24.77;;;20.30;;
68225;SDS011;55045;49.410;11.030;2024-03-02T17:17:37;25.40;;;20.70;;
68225;SDS011;55045;49.410;11.030;2024-03-02T17:20:43;29.67;;;22.80;;
68225;SDS011;55045;49.410;11.030;2024-03-02T17:23:47;29.48;;;22.95;;
68225;SDS011;55045;49.410;11.030;2024-03-02T17:26:51;31.67;;;24.48;;
68225;SDS011;55045;49.410;11.030;2024-03-02T17:29:54;30.95;;;24.90;;
68225;SDS011;55045;49.410;11.030;2024-03-02T17:32:59;31.00;;;24.50;;
68225;SDS011;55045;49.410;11.030;2024-03-02T17:36:04;35.95;;;27.15;;
68225;SDS011;55045;49.410;11.030;2024-03-02T17:39:08;30.95;;;24.60;;
68225;SDS011;55045;49.410;11.030;2024-03-02T17:42:13;30.48;;;23.40;;
68225;SDS011;55045;49.410;11.030;2024-03-02T17:45:17;34.55;;;27.17;;
68225;SDS011;55045;49.410;11.030;2024-03-02T17:48:21;39.15;;;28.95;;
68225;SDS011;55045;49.410;11.030;2024-03-02T17:51:27;32.15;;;24.60;;
68225;SDS011;55045;49.410;11.030;2024-03-02T17:54:32;30.63;;;22.77;;
68225;SDS011;55045;49.410;11.030;2024-03-02T17:57:37;36.95;;;27.60;;
68225;SDS011;55045;49.410;11.030;2024-03-02T18:00:41;43.10;;;30.13;;